Aviation Digital Data Service (ADDS)

Output produced by METARs form (0252 UTC 03 July 2022)
found at http://aviationweather.gov/metar/data/
 
KFME 030239Z AUTO 10004KT 5SM SCT070 BKN080 BKN110 21/21 A2999 RMK AO1
KBWI 030154Z 16003KT 10SM -RA FEW049 SCT075 BKN100 BKN150 BKN230 24/21 A2998 RMK AO2 LTG DSNT ALQDS RAE06B38 TSE16 SLP149 FRQ LTGICCG DSNT SE-S CB DSNT SE-S MOV SE P0001 T02390211 $
KBWI 022344Z 0300/0406 21008KT 6SM -SHRA VCTS SCT040CB BKN150 
     TEMPO 0300/0302 30010G20KT 2SM TSRA 
     FM030300 VRB04KT 6SM -SHRA BKN050 BKN120 
     FM030500 VRB03KT 5SM BR SCT020 BKN120 
     FM030900 34005KT P6SM SCT050 BKN120 
     FM031400 35006KT P6SM BKN060 
     FM040200 30003KT P6SM SKC
       
KESN 030145Z 18006KT 10SM SCT050 SCT070 28/24 A2998 RMK LTG DSNT N
KCGE 030235Z AUTO 17003KT 10SM SCT050 BKN060 27/25 A2997 RMK A01
KSBY 030154Z 17005KT 10SM CLR 26/22 A2997 RMK AO2 SLP149 T02610222
KSBY 022320Z 0300/0324 20008KT P6SM BKN120 
     FM030800 23004KT P6SM BKN040 
     FM031000 26003KT P6SM VCSH OVC015 
     FM031500 32006KT P6SM OVC020 
     FM031900 36008KT P6SM BKN050
       
KOXB 030153Z AUTO 22008G18KT 10SM CLR 25/23 A2998 RMK AO2 SLP152 T02500228 $
KFDK 030240Z AUTO 00000KT 7SM RA CLR 20/20 A2997 RMK AO2 LTG DSNT SW
KHGR 030153Z 36004KT 8SM CLR 22/21 A2997 RMK AO2 SLP151 T02220211 $